Time;durP1;ratioP1;P1;durP2;ratioP2;P2;SDS_P1;SDS_P2;PMS_P1;PMS_P2;Temp;Humidity;BMP_temperature;BMP_pressure;BME280_temperature;BME280_humidity;BME280_pressure;Samples;Min_cycle;Max_cycle;Signal;HPM_P1;HPM_P2
2022/05/04 00:00:47;;;;;;;5.60;3.20;;;;;;;11.64;38.15;100465.44;117180;1186;24699;-54
2022/05/04 00:03:15;;;;;;;8.00;3.50;;;;;;;11.66;38.17;100462.77;117322;1186;23691;-54
2022/05/04 00:05:44;;;;;;;5.00;3.10;;;;;;;11.68;38.22;100463.61;117075;1186;24240;-54
2022/05/04 00:08:13;;;;;;;4.80;3.10;;;;;;;11.70;38.25;100464.81;117012;1187;23450;-47
2022/05/04 00:10:42;;;;;;;6.90;3.80;;;;;;;11.73;38.22;100465.83;117061;1186;23576;-54
2022/05/04 00:13:11;;;;;;;6.00;3.10;;;;;;;11.79;38.33;100467.14;117076;1186;23484;-48
2022/05/04 00:15:39;;;;;;;7.00;3.10;;;;;;;11.84;38.39;100467.39;116795;1181;22933;-55
2022/05/04 00:18:08;;;;;;;4.80;2.80;;;;;;;11.90;38.42;100466.44;117232;1186;23446;-55
2022/05/04 00:20:37;;;;;;;6.60;3.40;;;;;;;11.96;38.39;100464.92;117016;1186;24614;-54
2022/05/04 00:23:05;;;;;;;6.20;3.00;;;;;;;12.01;38.54;100461.17;117133;1182;22957;-53
2022/05/04 00:25:34;;;;;;;4.80;2.90;;;;;;;12.06;38.56;100459.86;117181;1186;22801;-53
2022/05/04 00:28:04;;;;;;;5.40;3.40;;;;;;;12.11;38.43;100462.95;117110;1186;22927;-54
2022/05/04 00:30:32;;;;;;;5.00;2.90;;;;;;;12.13;38.53;100463.10;117243;1180;21864;-55
2022/05/04 00:33:01;;;;;;;5.60;3.00;;;;;;;12.17;38.21;100464.07;117151;1186;21848;-47
2022/05/04 00:35:29;;;;;;;5.60;2.90;;;;;;;12.20;38.55;100465.25;117272;1185;23447;-55
2022/05/04 00:37:58;;;;;;;11.00;2.70;;;;;;;12.22;38.36;100463.45;117062;1186;24154;-49
2022/05/04 00:40:27;;;;;;;4.70;2.50;;;;;;;12.24;38.38;100462.55;117077;1186;23535;-54
2022/05/04 00:42:55;;;;;;;5.60;2.80;;;;;;;12.24;38.40;100462.02;117231;1186;24172;-48
2022/05/04 00:45:23;;;;;;;8.20;3.40;;;;;;;12.26;38.39;100462.52;117178;1185;23461;-48
2022/05/04 00:47:52;;;;;;;6.50;2.90;;;;;;;12.26;38.41;100457.40;117006;1188;23457;-55
2022/05/04 00:50:20;;;;;;;4.80;2.40;;;;;;;12.26;38.43;100458.28;117112;1182;24145;-55
2022/05/04 00:52:50;;;;;;;5.00;2.60;;;;;;;12.24;38.49;100461.49;117035;1189;22971;-55
2022/05/04 00:55:19;;;;;;;5.10;2.90;;;;;;;12.23;38.35;100459.05;117047;1189;23003;-55
2022/05/04 01:00:34;;;;;;;4.40;2.70;;;;;;;12.17;38.51;100463.36;117114;1185;23477;-55
2022/05/04 01:03:03;;;;;;;4.50;2.60;;;;;;;12.18;38.64;100460.54;117149;1186;24176;-48
2022/05/04 01:05:32;;;;;;;5.40;2.80;;;;;;;12.19;38.60;100464.03;117209;1185;23560;-55
2022/05/04 01:08:00;;;;;;;6.60;3.20;;;;;;;12.21;38.61;100463.47;117316;1185;24216;-48
2022/05/04 01:10:28;;;;;;;6.70;3.50;;;;;;;12.22;38.40;100462.40;117338;1186;23478;-48
2022/05/04 01:12:56;;;;;;;4.80;3.00;;;;;;;12.22;38.52;100460.12;117289;1186;23464;-55
2022/05/04 01:15:25;;;;;;;5.80;3.10;;;;;;;12.22;38.53;100456.59;117038;1189;24143;-48
2022/05/04 01:17:54;;;;;;;4.80;3.20;;;;;;;12.22;38.66;100454.66;117150;1186;22969;-55
2022/05/04 01:20:24;;;;;;;5.50;3.20;;;;;;;12.23;38.50;100450.95;117253;1185;23445;-54
2022/05/04 01:22:53;;;;;;;6.40;3.00;;;;;;;12.23;38.58;100450.94;117331;1184;21852;-55
2022/05/04 01:25:23;;;;;;;6.30;3.20;;;;;;;12.23;38.58;100451.65;117378;1184;22921;-54
2022/05/04 01:27:51;;;;;;;5.40;3.10;;;;;;;12.23;38.54;100453.59;117200;1185;21855;-48
2022/05/04 01:30:19;;;;;;;7.00;3.00;;;;;;;12.23;38.62;100451.65;117128;1186;23467;-48
2022/05/04 01:32:49;;;;;;;6.80;3.50;;;;;;;12.23;38.59;100447.44;117112;1186;22884;-48
2022/05/04 01:35:17;;;;;;;6.60;3.20;;;;;;;12.24;38.62;100446.52;117165;1185;21948;-48
2022/05/04 01:37:45;;;;;;;6.50;3.00;;;;;;;12.26;38.75;100445.80;117224;1186;22628;-48
2022/05/04 01:40:14;;;;;;;7.70;3.50;;;;;;;12.27;38.85;100441.73;117054;1186;23469;-48
2022/05/04 01:42:42;;;;;;;5.40;2.90;;;;;;;12.30;38.51;100436.41;117094;1186;24334;-55
2022/05/04 01:45:10;;;;;;;4.80;2.90;;;;;;;12.32;38.73;100434.09;117113;1182;23518;-53
2022/05/04 01:47:39;;;;;;;4.10;2.40;;;;;;;12.36;38.62;100433.13;117356;1185;23533;-54
2022/05/04 01:50:08;;;;;;;8.10;3.30;;;;;;;12.42;38.81;100434.23;117261;1186;21930;-55
2022/05/04 01:52:36;;;;;;;6.10;2.70;;;;;;;12.49;38.76;100436.21;117368;1186;22951;-55
2022/05/04 01:55:06;;;;;;;4.10;2.30;;;;;;;12.56;38.88;100436.98;117220;1185;23482;-55
2022/05/04 01:57:36;;;;;;;5.20;2.80;;;;;;;12.62;38.83;100443.34;117236;1185;21886;-55
2022/05/04 02:00:06;;;;;;;6.10;3.10;;;;;;;12.67;38.82;100441.67;117368;1185;22976;-47
2022/05/04 02:02:34;;;;;;;;;;;;;;;12.73;38.92;100446.48;117391;1183;21839;-53
2022/05/04 02:05:04;;;;;;;5.90;2.50;;;;;;;12.77;38.81;100447.10;117229;1186;23581;-55
2022/05/04 02:07:36;;;;;;;4.80;2.60;;;;;;;12.81;38.78;100446.14;117120;1185;23001;-54
2022/05/04 02:10:05;;;;;;;4.50;2.30;;;;;;;12.82;38.90;100446.29;117374;1185;21839;-48
2022/05/04 02:12:34;;;;;;;6.00;2.80;;;;;;;12.84;38.97;100444.67;117362;1186;21891;-49
2022/05/04 02:15:04;;;;;;;4.20;2.70;;;;;;;12.85;38.87;100447.65;117281;1186;21864;-49
2022/05/04 02:17:32;;;;;;;4.80;2.50;;;;;;;12.85;38.76;100446.41;117265;1185;23825;-54
2022/05/04 02:20:01;;;;;;;11.80;3.10;;;;;;;12.85;38.89;100450.30;117258;1185;23577;-54
2022/05/04 02:22:30;;;;;;;4.80;2.90;;;;;;;12.84;38.81;100449.79;117289;1186;21878;-48
2022/05/04 02:24:58;;;;;;;5.90;2.70;;;;;;;12.82;38.92;100447.55;117424;1182;21855;-48
2022/05/04 02:27:26;;;;;;;5.80;2.70;;;;;;;12.78;38.81;100449.55;117095;1185;23470;-54
2022/05/04 02:29:54;;;;;;;7.00;2.70;;;;;;;12.77;38.84;100444.30;117301;1185;24158;-55
2022/05/04 02:32:23;;;;;;;6.30;2.70;;;;;;;12.79;39.06;100447.95;117208;1186;23545;-48
2022/05/04 02:37:57;;;;;;;4.20;2.50;;;;;;;12.82;38.91;100450.36;117290;1185;24766;-54
2022/05/04 02:40:28;;;;;;;4.90;2.70;;;;;;;12.85;38.96;100457.86;117071;1187;23500;-48
2022/05/04 02:42:57;;;;;;;6.50;2.60;;;;;;;12.86;38.92;100450.61;117317;1185;21883;-55
2022/05/04 02:45:25;;;;;;;3.80;2.60;;;;;;;12.86;38.92;100448.88;117148;1186;23458;-48
2022/05/04 02:47:54;;;;;;;5.50;2.70;;;;;;;12.84;38.98;100449.79;117232;1186;23471;-55
2022/05/04 02:50:22;;;;;;;8.10;2.80;;;;;;;12.84;38.97;100445.92;117245;1183;23590;-54
2022/05/04 02:52:51;;;;;;;6.20;2.50;;;;;;;12.83;38.96;100445.03;117231;1186;23497;-54
2022/05/04 02:55:19;;;;;;;4.40;2.40;;;;;;;12.83;38.97;100447.15;117283;1186;21894;-48
2022/05/04 02:57:48;;;;;;;8.10;3.10;;;;;;;12.82;39.03;100452.46;117192;1186;23643;-48
2022/05/04 03:00:16;;;;;;;4.60;2.90;;;;;;;12.81;39.10;100454.80;117258;1185;23568;-48
2022/05/04 03:02:46;;;;;;;4.20;2.50;;;;;;;12.78;39.22;100454.67;117360;1185;24148;-47
2022/05/04 03:05:16;;;;;;;4.10;2.30;;;;;;;12.76;39.06;100449.95;117322;1185;24168;-48
2022/05/04 03:07:44;;;;;;;5.60;2.30;;;;;;;12.73;39.10;100447.02;117213;1186;21833;-48
2022/05/04 03:10:13;;;;;;;7.80;2.70;;;;;;;12.70;39.11;100447.77;117301;1186;22925;-55
2022/05/04 03:12:43;;;;;;;4.70;2.30;;;;;;;12.68;39.12;100452.23;117274;1186;23583;-54
2022/05/04 03:15:11;;;;;;;5.80;2.90;;;;;;;12.65;39.18;100449.64;117330;1185;23517;-54
2022/05/04 03:17:39;;;;;;;6.60;2.50;;;;;;;12.66;39.18;100450.33;117350;1185;24145;-48
2022/05/04 03:20:12;;;;;;;4.10;2.20;;;;;;;12.67;39.33;100453.47;117444;1184;23445;-54
2022/05/04 03:22:41;;;;;;;4.90;2.70;;;;;;;12.68;39.30;100456.44;117307;1185;23478;-55
2022/05/04 03:25:10;;;;;;;6.90;2.40;;;;;;;12.72;39.50;100460.08;117325;1185;23545;-48
2022/05/04 03:27:39;;;;;;;4.30;2.80;;;;;;;12.75;39.53;100457.38;117311;1185;23568;-55
2022/05/04 03:30:08;;;;;;;4.50;2.30;;;;;;;12.79;39.56;100465.05;117497;1185;24178;-55
2022/05/04 03:32:37;;;;;;;5.60;2.50;;;;;;;12.83;39.53;100465.11;117320;1185;23591;-55
2022/05/04 03:35:05;;;;;;;5.10;2.70;;;;;;;12.85;39.70;100467.90;117342;1185;23439;-49
2022/05/04 03:37:34;;;;;;;5.70;2.40;;;;;;;12.87;39.60;100469.26;117468;1186;24175;-55
2022/05/04 03:40:02;;;;;;;6.50;2.70;;;;;;;12.89;39.60;100468.16;117353;1184;21840;-48
2022/05/04 03:42:30;;;;;;;5.80;2.40;;;;;;;12.92;39.69;100466.53;117073;1186;23488;-56
2022/05/04 03:44:59;;;;;;;7.80;2.80;;;;;;;12.96;39.78;100467.52;117260;1186;23566;-48
2022/05/04 03:47:28;;;;;;;8.20;2.60;;;;;;;13.02;39.90;100470.21;117094;1186;23584;-49
2022/05/04 03:49:56;;;;;;;26.60;4.00;;;;;;;13.09;39.90;100472.34;117274;1185;23504;-49
2022/05/04 03:52:24;;;;;;;5.20;2.60;;;;;;;13.18;39.93;100471.80;117183;1185;22065;-47
2022/05/04 03:54:52;;;;;;;7.30;2.70;;;;;;;13.28;40.10;100475.47;117234;1186;23491;-54
2022/05/04 03:57:21;;;;;;;6.00;2.30;;;;;;;13.36;40.12;100479.52;117201;1186;22925;-49
2022/05/04 03:59:49;;;;;;;3.60;2.40;;;;;;;13.46;40.06;100480.91;117150;1185;21858;-55
2022/05/04 04:02:18;;;;;;;9.20;3.00;;;;;;;13.56;40.03;100487.20;117385;1185;21842;-55
2022/05/04 04:04:47;;;;;;;5.80;2.70;;;;;;;13.64;40.07;100489.51;117283;1184;23570;-48
2022/05/04 04:07:15;;;;;;;8.00;2.80;;;;;;;13.71;39.97;100488.98;117324;1185;24709;-55
2022/05/04 04:09:44;;;;;;;15.00;3.20;;;;;;;13.79;40.10;100485.09;117348;1186;23445;-55
2022/05/04 04:12:12;;;;;;;5.50;3.20;;;;;;;13.85;40.05;100488.48;117139;1185;23556;-48
2022/05/04 04:14:40;;;;;;;11.50;4.60;;;;;;;13.91;40.05;100486.91;117353;1185;23566;-54
2022/05/04 04:17:09;;;;;;;10.40;3.90;;;;;;;14.00;40.15;100488.98;117326;1182;21849;-55
2022/05/04 04:19:37;;;;;;;7.30;3.10;;;;;;;14.05;40.08;100484.11;117289;1185;23015;-55
2022/05/04 04:22:05;;;;;;;4.70;2.90;;;;;;;14.05;40.12;100484.81;117161;1186;23025;-49
2022/05/04 04:24:34;;;;;;;5.20;2.60;;;;;;;14.07;40.21;100482.98;117133;1188;24136;-55
2022/05/04 04:27:03;;;;;;;4.90;2.90;;;;;;;14.12;40.24;100484.63;117152;1186;22626;-55
2022/05/04 04:29:31;;;;;;;6.30;3.10;;;;;;;14.18;40.29;100473.73;117359;1185;24261;-55
2022/05/04 04:32:00;;;;;;;7.60;2.80;;;;;;;14.24;40.32;100473.02;117343;1185;21903;-55
2022/05/04 04:34:29;;;;;;;9.20;3.20;;;;;;;14.32;40.33;100467.71;117500;1185;22632;-48
2022/05/04 04:36:58;;;;;;;5.70;3.70;;;;;;;14.37;40.41;100470.02;117211;1185;24220;-48
2022/05/04 04:39:26;;;;;;;6.50;2.60;;;;;;;14.43;40.50;100471.13;117258;1185;23537;-55
2022/05/04 04:41:55;;;;;;;5.60;3.20;;;;;;;14.50;40.40;100474.48;117304;1184;23570;-48
2022/05/04 04:44:25;;;;;;;5.60;3.40;;;;;;;14.59;40.48;100468.57;117109;1186;21858;-55
2022/05/04 04:46:54;;;;;;;5.10;3.10;;;;;;;14.83;40.37;100466.18;117176;1185;21978;-48
2022/05/04 04:49:22;;;;;;;4.80;2.80;;;;;;;14.90;40.46;100465.45;117915;1187;21903;-55
2022/05/04 04:51:51;;;;;;;6.30;2.90;;;;;;;14.94;40.48;100461.99;117095;1185;22928;-55
2022/05/04 04:54:19;;;;;;;5.70;2.90;;;;;;;15.04;40.59;100464.70;117275;1185;22305;-55
2022/05/04 04:56:48;;;;;;;5.50;2.70;;;;;;;15.25;40.49;100466.35;117115;1186;22400;-48
2022/05/04 04:59:17;;;;;;;7.80;2.90;;;;;;;15.39;40.50;100461.71;117407;1184;21849;-48
2022/05/04 05:01:45;;;;;;;6.00;2.50;;;;;;;15.53;40.48;100461.29;117395;1184;23708;-48
2022/05/04 05:04:14;;;;;;;4.70;2.80;;;;;;;15.61;40.51;100458.71;117456;1185;22155;-48
2022/05/04 05:06:44;;;;;;;8.70;2.80;;;;;;;15.62;40.69;100460.48;117128;1186;24155;-47
2022/05/04 05:09:21;;;;;;;9.20;3.50;;;;;;;15.72;40.67;100460.67;117303;1185;23642;-48
2022/05/04 05:11:50;;;;;;;5.90;2.60;;;;;;;15.82;40.71;100457.00;117283;1186;23644;-55
2022/05/04 05:17:05;;;;;;;7.40;3.40;;;;;;;16.00;40.55;100455.89;117232;1186;23628;-54
2022/05/04 05:19:35;;;;;;;4.20;2.50;;;;;;;16.10;40.62;100460.71;117278;1180;24256;-55
2022/05/04 05:22:04;;;;;;;4.80;2.30;;;;;;;16.17;40.67;100461.68;117339;1185;23076;-48
2022/05/04 05:24:32;;;;;;;8.10;3.20;;;;;;;16.24;40.58;100460.74;117300;1185;24269;-55
2022/05/04 05:27:01;;;;;;;9.10;3.50;;;;;;;16.32;40.57;100456.22;117251;1185;22739;-48
2022/05/04 05:29:29;;;;;;;6.40;3.30;;;;;;;16.42;40.54;100456.77;117276;1185;24138;-55
2022/05/04 05:31:58;;;;;;;9.10;3.70;;;;;;;16.48;40.50;100455.48;117419;1184;21973;-54
2022/05/04 05:34:31;;;;;;;7.70;3.80;;;;;;;16.55;40.47;100459.85;117391;1185;22428;-48
2022/05/04 05:37:02;;;;;;;8.50;2.90;;;;;;;16.61;40.45;100465.66;117461;1185;23548;-49
2022/05/04 05:39:31;;;;;;;6.40;3.10;;;;;;;16.64;40.29;100464.29;117353;1185;22558;-48
2022/05/04 05:41:59;;;;;;;6.30;3.10;;;;;;;16.66;40.21;100459.09;117330;1182;21884;-55
2022/05/04 05:44:30;;;;;;;7.00;3.20;;;;;;;16.65;40.14;100464.43;117113;1186;22162;-47
2022/05/04 05:47:05;;;;;;;8.20;2.90;;;;;;;16.62;40.16;100470.02;117077;1185;23547;-56
2022/05/04 05:49:34;;;;;;;7.60;3.10;;;;;;;16.62;40.19;100473.39;117234;1185;22787;-55
2022/05/04 05:52:02;;;;;;;12.00;3.10;;;;;;;16.61;40.04;100473.07;117358;1185;23484;-55
2022/05/04 05:54:31;;;;;;;3.50;2.50;;;;;;;16.61;40.06;100478.40;117257;1186;22835;-55
2022/05/04 05:57:01;;;;;;;10.70;3.30;;;;;;;16.59;40.03;100478.48;117093;1185;22728;-48
2022/05/04 05:59:29;;;;;;;6.10;2.60;;;;;;;16.56;39.83;100473.59;117424;1185;21850;-48
2022/05/04 06:01:57;;;;;;;5.00;2.20;;;;;;;16.53;39.88;100476.03;117322;1185;23444;-55
2022/05/04 06:04:28;;;;;;;11.20;2.70;;;;;;;16.49;39.87;100471.39;117073;1187;23310;-49
2022/05/04 06:06:57;;;;;;;8.20;2.80;;;;;;;16.45;39.92;100470.81;117182;1182;21925;-48
2022/05/04 06:09:28;;;;;;;7.30;3.40;;;;;;;16.45;39.95;100472.95;117062;1181;22918;-48
2022/05/04 06:11:58;;;;;;;6.50;2.90;;;;;;;16.45;39.97;100473.81;117087;1186;23643;-55
2022/05/04 06:14:26;;;;;;;6.50;2.50;;;;;;;16.47;39.89;100473.23;117339;1185;24232;-47
2022/05/04 06:16:55;;;;;;;4.10;2.10;;;;;;;16.50;40.05;100472.77;117238;1185;22797;-48
2022/05/04 06:19:25;;;;;;;4.80;2.60;;;;;;;16.55;39.97;100472.79;117328;1185;22873;-48
2022/05/04 06:21:53;;;;;;;4.10;2.20;;;;;;;16.60;39.95;100468.70;117399;1180;21969;-56
2022/05/04 06:24:21;;;;;;;7.10;2.90;;;;;;;16.66;39.99;100474.16;117298;1186;23547;-49
2022/05/04 06:26:50;;;;;;;4.90;2.60;;;;;;;16.71;40.01;100471.66;117350;1185;22616;-48
2022/05/04 06:29:18;;;;;;;6.30;2.70;;;;;;;16.74;39.91;100463.94;117136;1185;23471;-48
2022/05/04 06:34:34;;;;;;;4.90;2.80;;;;;;;16.73;39.84;100458.48;117211;1188;22882;-51
2022/05/04 06:37:03;;;;;;;6.30;2.50;;;;;;;16.73;39.85;100460.44;117224;1185;21981;-55
2022/05/04 06:39:31;;;;;;;9.20;3.00;;;;;;;16.73;39.91;100455.66;117348;1185;21929;-55
2022/05/04 06:42:01;;;;;;;5.70;2.40;;;;;;;16.77;39.89;100456.58;117307;1185;24250;-55
2022/05/04 06:44:29;;;;;;;4.60;2.10;;;;;;;16.82;39.92;100454.63;117891;1185;21997;-49
2022/05/04 06:47:00;;;;;;;5.20;2.60;;;;;;;16.89;40.01;100456.33;117323;1185;23025;-49
2022/05/04 06:49:28;;;;;;;5.10;2.80;;;;;;;16.97;40.01;100457.10;117330;1185;21932;-49
2022/05/04 06:51:56;;;;;;;4.80;2.40;;;;;;;17.07;40.08;100455.49;117315;1185;23584;-55
2022/05/04 06:54:25;;;;;;;5.80;2.60;;;;;;;17.22;40.23;100457.77;117279;1185;22040;-48
2022/05/04 06:56:53;;;;;;;6.20;2.80;;;;;;;17.41;40.22;100465.17;117343;1184;21856;-49
2022/05/04 06:59:23;;;;;;;4.20;2.20;;;;;;;17.58;40.26;100465.22;117217;1186;22791;-49
2022/05/04 07:01:51;;;;;;;3.90;2.20;;;;;;;17.74;40.27;100465.63;117464;1185;21849;-54
2022/05/04 07:04:20;;;;;;;6.10;2.60;;;;;;;17.92;40.39;100467.20;117298;1185;23445;-55
2022/05/04 07:06:50;;;;;;;;;;;;;;;18.13;40.38;100470.10;117298;1185;21833;-48
2022/05/04 07:09:18;;;;;;;4.80;2.50;;;;;;;18.30;40.28;100472.77;117252;1185;24155;-49
2022/05/04 07:11:47;;;;;;;5.70;2.30;;;;;;;18.44;40.31;100470.73;117365;1185;23592;-54
2022/05/04 07:14:17;;;;;;;4.90;2.50;;;;;;;18.58;40.29;100469.93;117264;1185;21870;-55
2022/05/04 07:16:47;;;;;;;4.10;2.50;;;;;;;18.70;40.26;100471.18;117348;1185;21848;-55
2022/05/04 07:19:16;;;;;;;4.50;2.20;;;;;;;18.72;40.13;100466.29;117436;1185;21846;-49
2022/05/04 07:21:45;;;;;;;6.40;2.80;;;;;;;18.79;40.22;100469.54;117331;1186;21894;-49
2022/05/04 07:24:14;;;;;;;4.90;2.40;;;;;;;18.82;40.09;100466.02;117317;1185;21853;-55
2022/05/04 07:26:44;;;;;;;6.20;2.20;;;;;;;18.90;40.25;100466.22;117394;1185;24180;-55
2022/05/04 07:29:12;;;;;;;5.00;2.30;;;;;;;18.98;40.23;100464.11;118277;1185;22102;-55
2022/05/04 07:31:42;;;;;;;5.60;2.40;;;;;;;19.02;40.15;100476.19;117392;1185;22838;-49
2022/05/04 07:34:14;;;;;;;4.60;2.30;;;;;;;19.08;40.10;100477.19;117365;1185;24163;-49
2022/05/04 07:36:42;;;;;;;5.40;3.00;;;;;;;19.13;40.14;100478.01;117309;1185;22729;-55
2022/05/04 07:44:46;;;;;;;5.50;3.10;;;;;;;19.26;40.20;100474.90;117248;1185;22603;-50
2022/05/04 07:47:16;;;;;;;5.20;2.60;;;;;;;19.34;40.13;100471.69;117439;1183;23602;-54
2022/05/04 07:49:49;;;;;;;4.30;2.60;;;;;;;19.42;40.14;100475.91;117089;1187;21859;-48
2022/05/04 07:52:18;;;;;;;4.20;2.50;;;;;;;19.52;40.22;100474.55;117354;1185;24206;-48
2022/05/04 07:54:47;;;;;;;4.20;2.40;;;;;;;19.65;40.18;100475.00;117366;1183;23551;-54
2022/05/04 07:57:16;;;;;;;4.80;2.50;;;;;;;19.73;40.12;100476.25;117338;1185;22716;-55
2022/05/04 08:04:16;;;;;;;4.40;2.30;;;;;;;19.80;40.11;100475.73;117176;1186;21854;-48
2022/05/04 08:05:24;;;;;;;4.80;2.60;;;;;;;19.96;40.07;100477.80;117409;1185;23432;-54
2022/05/04 08:07:53;;;;;;;6.10;2.50;;;;;;;19.92;39.83;100480.48;117438;1183;21859;-49
2022/05/04 08:10:21;;;;;;;4.80;2.40;;;;;;;19.86;39.77;100482.58;117422;1185;21837;-48
2022/05/04 08:12:50;;;;;;;5.10;2.60;;;;;;;19.72;39.64;100482.34;117150;1186;22639;-48
2022/05/04 08:15:19;;;;;;;5.80;2.60;;;;;;;19.53;39.51;100481.81;117341;1185;23676;-48
2022/05/04 08:17:47;;;;;;;5.80;3.00;;;;;;;19.41;39.61;100484.88;117313;1185;24235;-54
2022/05/04 08:20:16;;;;;;;5.30;3.00;;;;;;;19.35;39.70;100485.55;117316;1185;21849;-54
2022/05/04 08:22:45;;;;;;;4.40;2.70;;;;;;;19.31;39.69;100483.40;117197;1186;21836;-49
2022/05/04 08:25:13;;;;;;;5.00;2.70;;;;;;;19.28;39.72;100483.33;117116;1188;22624;-54
2022/05/04 08:27:41;;;;;;;4.50;2.50;;;;;;;19.37;39.85;100483.83;117376;1185;23464;-49
2022/05/04 08:30:10;;;;;;;4.40;2.80;;;;;;;19.45;39.86;100481.65;117343;1185;24175;-48
2022/05/04 08:32:39;;;;;;;5.50;2.90;;;;;;;19.50;39.84;100482.31;117310;1186;23474;-54
2022/05/04 08:35:08;;;;;;;6.00;2.90;;;;;;;19.57;39.93;100480.36;117298;1185;23446;-55
2022/05/04 08:37:37;;;;;;;8.30;3.40;;;;;;;19.65;39.83;100474.14;117266;1185;24141;-55
2022/05/04 08:40:08;;;;;;;5.70;2.80;;;;;;;19.69;39.76;100475.89;117327;1185;23571;-55
2022/05/04 08:42:44;;;;;;;5.50;3.00;;;;;;;19.70;39.80;100473.33;117395;1185;23554;-48
2022/05/04 08:45:15;;;;;;;6.10;3.10;;;;;;;19.72;39.71;100473.10;117174;1186;21861;-55
2022/05/04 08:47:45;;;;;;;5.50;3.10;;;;;;;19.74;39.84;100475.45;117375;1185;21857;-49
2022/05/04 08:50:21;;;;;;;6.70;3.10;;;;;;;19.83;39.91;100479.49;117180;1185;21860;-49
2022/05/04 08:52:56;;;;;;;6.40;2.60;;;;;;;20.01;40.12;100477.73;117248;1185;22741;-54
2022/05/04 08:55:25;;;;;;;5.70;3.00;;;;;;;20.33;40.29;100480.91;117089;1186;24153;-49
2022/05/04 08:57:54;;;;;;;5.60;2.80;;;;;;;20.54;40.04;100484.15;117119;1181;21884;-51
2022/05/04 09:00:24;;;;;;;7.20;3.20;;;;;;;20.58;39.92;100482.34;117474;1185;24135;-49
2022/05/04 09:02:52;;;;;;;7.30;3.20;;;;;;;20.65;39.84;100479.12;117296;1186;21849;-55
2022/05/04 09:05:23;;;;;;;8.40;2.90;;;;;;;20.80;39.99;100481.91;117303;1186;21850;-54
2022/05/04 09:07:55;;;;;;;;;;;;;;;20.96;40.07;100483.22;117095;1188;21883;-54
2022/05/04 09:10:27;;;;;;;3.90;2.90;;;;;;;21.16;39.92;100480.86;117342;1185;24594;-54
2022/05/04 09:12:55;;;;;;;6.80;2.90;;;;;;;21.35;39.90;100480.20;117210;1186;23729;-48
2022/05/04 09:15:28;;;;;;;3.90;2.40;;;;;;;21.50;39.82;100473.63;117403;1186;21981;-55
2022/05/04 09:18:19;;;;;;;3.70;1.80;;;;;;;21.78;40.08;100469.92;117376;1184;22826;-49
2022/05/04 09:20:48;;;;;;;3.70;2.30;;;;;;;22.09;39.94;100466.34;117197;1186;21952;-48
2022/05/04 09:23:21;;;;;;;4.90;2.60;;;;;;;22.23;39.82;100467.29;117147;1186;22166;-55
2022/05/04 09:25:53;;;;;;;4.70;2.50;;;;;;;22.33;39.68;100463.48;117246;1186;21851;-49
2022/05/04 09:28:24;;;;;;;3.00;2.10;;;;;;;22.33;39.54;100459.58;117398;1185;21858;-49
2022/05/04 09:30:54;;;;;;;5.40;2.60;;;;;;;22.34;39.55;100457.16;117310;1185;24306;-49
2022/05/04 09:33:27;;;;;;;3.70;2.20;;;;;;;22.35;39.41;100452.49;117112;1186;21984;-55
2022/05/04 09:35:56;;;;;;;3.30;1.90;;;;;;;22.38;39.32;100448.88;117449;1184;23542;-55
2022/05/04 09:46:55;;;;;;;7.60;1.90;;;;;;;23.01;39.16;100429.99;117171;1185;22668;-55
2022/05/04 09:49:33;;;;;;;5.70;1.90;;;;;;;23.23;39.19;100420.23;117247;1185;22905;-49
2022/05/04 09:52:04;;;;;;;7.60;2.60;;;;;;;23.41;39.00;100417.27;117344;1185;24193;-55
2022/05/04 09:54:32;;;;;;;6.00;2.30;;;;;;;23.58;38.88;100413.16;117346;1185;23515;-55
2022/05/04 09:57:03;;;;;;;2.50;1.60;;;;;;;23.68;38.82;100409.45;117458;1184;21858;-49
2022/05/04 09:59:32;;;;;;;7.10;1.70;;;;;;;23.81;38.78;100411.77;117312;1185;22957;-55
2022/05/04 10:02:03;;;;;;;5.50;1.70;;;;;;;23.93;38.72;100408.98;117329;1185;21859;-49
2022/05/04 10:04:33;;;;;;;2.60;1.80;;;;;;;24.04;38.52;100397.71;117076;1187;22604;-49
2022/05/04 10:07:10;;;;;;;5.90;1.80;;;;;;;24.35;38.63;100397.19;117324;1185;24300;-55
2022/05/04 10:09:40;;;;;;;3.10;1.80;;;;;;;24.64;38.59;100398.95;117356;1185;22921;-55
2022/05/04 10:12:08;;;;;;;3.70;2.20;;;;;;;24.78;38.42;100396.58;117400;1185;22708;-55
2022/05/04 10:14:37;;;;;;;3.00;1.80;;;;;;;24.88;38.38;100388.48;117298;1185;21846;-55
2022/05/04 10:17:18;;;;;;;2.50;1.70;;;;;;;25.00;38.27;100387.61;117271;1185;23640;-56
2022/05/04 10:19:54;;;;;;;2.90;1.80;;;;;;;25.04;38.03;100385.02;117201;1186;23548;-56
2022/05/04 10:22:31;;;;;;;3.90;2.10;;;;;;;25.09;38.08;100379.26;117308;1186;22886;-49
2022/05/04 10:25:00;;;;;;;5.40;2.10;;;;;;;25.24;37.93;100375.84;117319;1185;22052;-49
2022/05/04 10:27:29;;;;;;;4.50;2.10;;;;;;;25.39;37.78;100373.07;117263;1185;24018;-55
2022/05/04 10:32:51;;;;;;;4.50;1.90;;;;;;;25.77;37.64;100363.64;117328;1185;23551;-56
2022/05/04 10:35:26;;;;;;;2.90;1.70;;;;;;;25.90;37.56;100357.58;117252;1185;23084;-55
2022/05/04 10:37:58;;;;;;;7.50;2.80;;;;;;;25.95;37.49;100360.42;117030;1187;22800;-49
2022/05/04 10:40:47;;;;;;;3.30;1.80;;;;;;;25.90;37.27;100352.55;117306;1185;21860;-55
2022/05/04 10:43:38;;;;;;;2.60;1.50;;;;;;;25.97;36.98;100350.44;117256;1181;21846;-57
2022/05/04 10:46:10;;;;;;;3.90;1.70;;;;;;;26.15;36.86;100345.09;117289;1185;22953;-49
2022/05/04 10:48:51;;;;;;;4.20;2.10;;;;;;;26.24;36.91;100341.70;117317;1184;21854;-55
2022/05/04 10:51:21;;;;;;;3.20;1.80;;;;;;;26.36;36.77;100337.70;117053;1187;21853;-49
2022/05/04 10:53:59;;;;;;;5.50;1.90;;;;;;;26.51;36.79;100334.65;117074;1187;21847;-49
2022/05/04 10:56:28;;;;;;;5.00;1.90;;;;;;;26.62;36.72;100334.92;117266;1185;21851;-49
2022/05/04 10:58:59;;;;;;;5.20;2.10;;;;;;;26.69;36.61;100333.42;117048;1185;21944;-55
2022/05/04 11:01:34;;;;;;;4.40;1.80;;;;;;;26.73;36.46;100334.00;117151;1185;23547;-49
2022/05/04 11:04:11;;;;;;;5.20;2.00;;;;;;;26.77;36.32;100333.70;117246;1185;23569;-48
2022/05/04 11:06:43;;;;;;;4.90;2.10;;;;;;;26.83;36.24;100329.98;117369;1184;21860;-50
2022/05/04 11:09:14;;;;;;;5.10;2.20;;;;;;;27.04;36.20;100321.83;117221;1185;23680;-49
2022/05/04 11:11:47;;;;;;;3.80;2.40;;;;;;;27.28;36.22;100315.52;117064;1187;21893;-50
2022/05/04 11:14:18;;;;;;;3.50;2.00;;;;;;;27.24;35.89;100311.90;116944;1187;21847;-49
2022/05/04 11:16:51;;;;;;;4.10;2.10;;;;;;;26.94;35.56;100311.83;117260;1185;22697;-49
2022/05/04 11:19:22;;;;;;;3.60;2.00;;;;;;;26.74;35.45;100310.73;117223;1183;22962;-49
2022/05/04 11:21:51;;;;;;;3.50;2.00;;;;;;;26.50;35.22;100311.58;117143;1186;23641;-50
2022/05/04 11:24:20;;;;;;;3.50;1.80;;;;;;;26.10;34.96;100312.38;117076;1182;21852;-49
2022/05/04 11:26:52;;;;;;;2.90;1.80;;;;;;;25.76;34.87;100318.23;117090;1180;22961;-49
2022/05/04 11:29:26;;;;;;;4.60;1.90;;;;;;;25.46;34.71;100312.98;117309;1185;24141;-49
2022/05/04 11:32:02;;;;;;;4.10;2.00;;;;;;;25.21;34.82;100321.10;117033;1187;21893;-49
2022/05/04 11:34:35;;;;;;;21.90;6.10;;;;;;;24.99;33.98;100337.45;117354;1185;21903;-49
2022/05/04 11:37:09;;;;;;;8.00;3.10;;;;;;;24.47;33.60;100353.52;117093;1185;23015;-48
2022/05/04 11:39:39;;;;;;;6.40;2.40;;;;;;;23.90;33.64;100354.38;117060;1188;21857;-48
2022/05/04 11:42:09;;;;;;;5.30;2.10;;;;;;;23.46;34.02;100356.24;117098;1182;23638;-48
2022/05/04 11:44:39;;;;;;;9.00;2.90;;;;;;;23.08;33.75;100352.63;116991;1185;21854;-49
2022/05/04 11:47:08;;;;;;;4.10;2.40;;;;;;;22.70;33.67;100351.84;117307;1185;21869;-48
2022/05/04 11:49:36;;;;;;;43.60;24.90;;;;;;;22.34;33.74;100356.70;116992;1185;21906;-49
2022/05/04 11:52:07;;;;;;;29.40;16.50;;;;;;;22.09;34.03;100353.27;117036;1180;21849;-49
2022/05/04 11:54:36;;;;;;;6.20;3.80;;;;;;;21.93;34.10;100358.88;117260;1185;24181;-48
2022/05/04 11:57:14;;;;;;;5.70;2.90;;;;;;;21.80;34.18;100356.61;117030;1188;22108;-50
2022/05/04 11:59:42;;;;;;;7.00;3.40;;;;;;;21.69;34.18;100353.31;117025;1187;22992;-49